Time;durP1;ratioP1;P1;durP2;ratioP2;P2;SDS_P1;SDS_P2;PMS_P1;PMS_P2;Temp;Humidity;BMP_temperature;BMP_pressure;BME280_temperature;BME280_humidity;BME280_pressure;Samples;Min_cycle;Max_cycle;Signal;HPM_P1;HPM_P2
2021/09/26 00:01:44;;;;;;;3.78;2.55;;;;;;;;;;143733;725;46012;-89
2021/09/26 00:04:23;;;;;;;6.43;2.85;;;;;;;;;;143731;585;47020;-91
2021/09/26 00:07:14;;;;;;;;;;;;;;;;;;;;;
2021/09/26 00:09:51;;;;;;;3.78;2.37;;;;;;;;;;143735;701;46018;-90
2021/09/26 00:12:35;;;;;;;4.40;2.72;;;;;;;;;;143736;599;46012;-88
2021/09/26 00:15:37;;;;;;;6.65;2.50;;;;;;;;;;143736;694;46018;-88
2021/09/26 00:18:22;;;;;;;4.85;3.53;;;;;;;;;;143735;569;45022;-83
2021/09/26 00:21:20;;;;;;;4.75;3.08;;;;;;;;;;143737;624;45019;-89
2021/09/26 00:24:17;;;;;;;3.95;2.90;;;;;;;;;;143738;610;45022;-89
2021/09/26 00:26:55;;;;;;;4.32;2.50;;;;;;;;;;143737;719;45020;-82
2021/09/26 00:29:27;;;;;;;7.05;3.53;;;;;;;;;;143735;565;46022;-88
2021/09/26 00:31:54;;;;;;;5.55;3.10;;;;;;;;;;143735;620;46014;-89
2021/09/26 00:34:20;;;;;;;7.30;3.90;;;;;;;;;;143736;564;46023;-86
2021/09/26 00:36:47;;;;;;;5.55;2.90;;;;;;;;;;143733;712;46021;-88
2021/09/26 00:39:14;;;;;;;9.95;3.40;;;;;;;;;;143730;686;46012;-87
2021/09/26 00:41:42;;;;;;;6.55;3.25;;;;;;;;;;143735;678;46018;-89
2021/09/26 00:44:09;;;;;;;4.65;2.92;;;;;;;;;;143733;651;46012;-88
2021/09/26 00:46:35;;;;;;;2.90;2.60;;;;;;;;;;143733;730;46020;-88
2021/09/26 00:49:02;;;;;;;11.68;3.45;;;;;;;;;;143732;569;46022;-89
2021/09/26 00:51:29;;;;;;;5.90;3.60;;;;;;;;;;143734;614;46016;-90
2021/09/26 00:53:56;;;;;;;4.93;3.45;;;;;;;;;;143731;604;48012;-89
2021/09/26 00:56:40;;;;;;;9.20;3.47;;;;;;;;;;143732;661;46018;-88
2021/09/26 00:59:14;;;;;;;5.50;3.22;;;;;;;;;;143733;569;46012;-87
2021/09/26 01:01:51;;;;;;;4.07;3.00;;;;;;;;;;143734;609;46018;-88
2021/09/26 01:04:24;;;;;;;5.90;3.75;;;;;;;;;;143735;589;46048;-87
2021/09/26 01:07:10;;;;;;;9.02;3.12;;;;;;;;;;143732;605;47018;-88
2021/09/26 01:10:28;;;;;;;5.80;3.17;;;;;;;;;;143735;577;45925;-88
2021/09/26 01:13:48;;;;;;;3.97;2.95;;;;;;;;;;143736;565;46018;-90
2021/09/26 01:16:56;;;;;;;4.05;2.72;;;;;;;;;;143735;654;46022;-89
2021/09/26 01:20:02;;;;;;;6.93;3.37;;;;;;;;;;143729;582;47020;-87
2021/09/26 01:23:23;;;;;;;10.07;2.97;;;;;;;;;;143731;598;46012;-87
2021/09/26 01:26:11;;;;;;;3.60;2.92;;;;;;;;;;143734;616;46014;-89
2021/09/26 01:29:27;;;;;;;5.20;3.50;;;;;;;;;;143736;611;46049;-87
2021/09/26 01:31:56;;;;;;;5.18;2.97;;;;;;;;;;143733;573;46044;-90
2021/09/26 01:34:45;;;;;;;8.55;3.85;;;;;;;;;;143733;645;46012;-89
2021/09/26 01:37:43;;;;;;;5.72;3.00;;;;;;;;;;143733;601;46018;-88
2021/09/26 01:40:19;;;;;;;7.78;3.17;;;;;;;;;;143735;588;46014;-89
2021/09/26 01:42:53;;;;;;;4.50;3.70;;;;;;;;;;143731;597;47020;-88
2021/09/26 01:45:45;;;;;;;6.72;3.47;;;;;;;;;;143733;593;46012;-88
2021/09/26 01:48:22;;;;;;;7.90;3.15;;;;;;;;;;143732;601;47018;-91
2021/09/26 01:50:55;;;;;;;5.12;3.17;;;;;;;;;;143735;611;46012;-90
2021/09/26 01:53:25;;;;;;;6.32;2.85;;;;;;;;;;143733;594;46018;-88
2021/09/26 01:55:54;;;;;;;9.25;3.03;;;;;;;;;;143733;582;46012;-89
2021/09/26 01:58:21;;;;;;;7.80;2.92;;;;;;;;;;143733;611;46039;-89
2021/09/26 02:00:48;;;;;;;4.87;3.03;;;;;;;;;;143734;589;47022;-89
2021/09/26 02:03:25;;;;;;;4.18;2.90;;;;;;;;;;143731;599;47020;-88
2021/09/26 02:05:53;;;;;;;5.22;2.95;;;;;;;;;;143730;564;46012;-87
2021/09/26 02:08:21;;;;;;;5.40;3.08;;;;;;;;;;143733;582;46018;-89
2021/09/26 02:10:50;;;;;;;5.55;3.28;;;;;;;;;;143735;590;47012;-88
2021/09/26 02:13:17;;;;;;;7.07;3.05;;;;;;;;;;143733;605;46018;-89
2021/09/26 02:15:48;;;;;;;9.60;2.83;;;;;;;;;;143734;612;46022;-88
2021/09/26 02:18:16;;;;;;;5.40;3.47;;;;;;;;;;143732;570;47018;-90
2021/09/26 02:20:44;;;;;;;5.45;3.05;;;;;;;;;;143734;608;47023;-89
2021/09/26 02:23:11;;;;;;;4.15;3.00;;;;;;;;;;143731;664;47020;-90
2021/09/26 02:25:39;;;;;;;8.05;2.97;;;;;;;;;;143733;599;46916;-90
2021/09/26 02:28:07;;;;;;;5.20;3.10;;;;;;;;;;143735;564;45588;-90
2021/09/26 02:30:34;;;;;;;4.05;3.05;;;;;;;;;;143733;595;46022;-90
2021/09/26 02:33:01;;;;;;;6.57;2.80;;;;;;;;;;143733;613;46020;-88
2021/09/26 02:35:28;;;;;;;5.68;3.55;;;;;;;;;;143732;596;46012;-89
2021/09/26 02:37:54;;;;;;;5.05;3.25;;;;;;;;;;143732;574;47018;-91
2021/09/26 02:40:22;;;;;;;3.95;3.15;;;;;;;;;;143734;596;46012;-90
2021/09/26 02:43:05;;;;;;;6.53;3.17;;;;;;;;;;143731;570;47019;-90
2021/09/26 02:45:45;;;;;;;4.53;3.10;;;;;;;;;;143731;575;47022;-91
2021/09/26 02:48:19;;;;;;;6.20;3.60;;;;;;;;;;143733;604;46015;-89
2021/09/26 02:50:48;;;;;;;4.60;3.45;;;;;;;;;;143734;564;46013;-89
2021/09/26 02:53:16;;;;;;;4.85;3.22;;;;;;;;;;143730;579;47018;-89
2021/09/26 02:55:46;;;;;;;4.87;3.92;;;;;;;;;;143732;584;46022;-89
2021/09/26 02:58:13;;;;;;;6.20;3.00;;;;;;;;;;143733;588;46018;-89
2021/09/26 03:00:43;;;;;;;5.68;3.33;;;;;;;;;;143734;580;46022;-89
2021/09/26 03:03:16;;;;;;;4.25;3.00;;;;;;;;;;143729;587;47020;-89
2021/09/26 03:05:45;;;;;;;5.57;3.28;;;;;;;;;;143732;592;46022;-90
2021/09/26 03:08:13;;;;;;;8.02;3.08;;;;;;;;;;143731;612;47016;-87
2021/09/26 03:10:41;;;;;;;6.45;3.37;;;;;;;;;;143735;594;46021;-90
2021/09/26 03:13:08;;;;;;;4.20;2.75;;;;;;;;;;143732;577;46018;-89
2021/09/26 03:15:34;;;;;;;4.82;3.37;;;;;;;;;;143734;570;46012;-90
2021/09/26 03:18:01;;;;;;;5.35;3.10;;;;;;;;;;143733;585;47019;-90
2021/09/26 03:20:29;;;;;;;7.62;3.05;;;;;;;;;;143734;565;46023;-90
2021/09/26 03:22:56;;;;;;;5.43;2.80;;;;;;;;;;143732;569;46020;-91
2021/09/26 03:25:23;;;;;;;4.90;3.40;;;;;;;;;;143732;605;46012;-90
2021/09/26 03:27:50;;;;;;;5.05;3.03;;;;;;;;;;143732;579;47019;-90
2021/09/26 03:30:17;;;;;;;7.62;3.60;;;;;;;;;;143734;590;46012;-91
2021/09/26 03:32:44;;;;;;;7.47;3.40;;;;;;;;;;143732;574;47018;-89
2021/09/26 03:35:13;;;;;;;10.00;3.92;;;;;;;;;;143735;583;46014;-89
2021/09/26 03:37:40;;;;;;;3.05;2.55;;;;;;;;;;143733;595;47018;-90
2021/09/26 03:40:08;;;;;;;5.85;3.53;;;;;;;;;;143733;594;47022;-89
2021/09/26 03:42:36;;;;;;;5.80;3.28;;;;;;;;;;143732;564;46043;-90
2021/09/26 03:45:05;;;;;;;7.60;3.15;;;;;;;;;;143732;603;46012;-89
2021/09/26 03:47:31;;;;;;;4.62;3.15;;;;;;;;;;143734;576;46017;-89
2021/09/26 03:49:58;;;;;;;6.07;3.00;;;;;;;;;;143737;595;46012;-89
2021/09/26 03:52:26;;;;;;;6.80;3.33;;;;;;;;;;143734;571;46018;-90
2021/09/26 03:54:52;;;;;;;8.77;3.10;;;;;;;;;;143731;569;46012;-92
2021/09/26 03:57:20;;;;;;;11.88;3.60;;;;;;;;;;143731;673;47019;-88
2021/09/26 03:59:46;;;;;;;4.43;3.05;;;;;;;;;;143734;565;46012;-88
2021/09/26 04:02:14;;;;;;;5.65;3.37;;;;;;;;;;143731;617;47018;-88
2021/09/26 04:04:41;;;;;;;4.10;2.97;;;;;;;;;;143732;566;46917;-89
2021/09/26 04:07:08;;;;;;;7.00;3.53;;;;;;;;;;143733;582;47018;-91
2021/09/26 04:09:35;;;;;;;5.05;2.92;;;;;;;;;;143733;607;47022;-87
2021/09/26 04:12:01;;;;;;;8.07;3.97;;;;;;;;;;143732;601;47020;-88
2021/09/26 04:14:28;;;;;;;7.45;3.72;;;;;;;;;;143733;569;47022;-90
2021/09/26 04:16:54;;;;;;;8.10;4.22;;;;;;;;;;143735;610;46018;-90
2021/09/26 04:19:21;;;;;;;8.65;3.60;;;;;;;;;;143736;609;46012;-91
2021/09/26 04:21:50;;;;;;;6.57;3.87;;;;;;;;;;143731;598;47018;-90
2021/09/26 04:24:18;;;;;;;8.35;3.45;;;;;;;;;;143732;588;46012;-88
2021/09/26 04:26:45;;;;;;;7.45;3.10;;;;;;;;;;143734;586;47018;-89
2021/09/26 04:29:12;;;;;;;6.18;3.55;;;;;;;;;;143735;569;46012;-89
2021/09/26 04:31:39;;;;;;;5.72;3.20;;;;;;;;;;143732;602;47020;-88
2021/09/26 04:34:06;;;;;;;6.85;3.42;;;;;;;;;;143730;607;46917;-90
2021/09/26 04:36:33;;;;;;;7.47;3.10;;;;;;;;;;143735;601;46014;-90
2021/09/26 04:38:59;;;;;;;6.07;3.37;;;;;;;;;;143735;597;46012;-89
2021/09/26 04:41:26;;;;;;;6.03;3.65;;;;;;;;;;143732;611;46015;-89
2021/09/26 04:43:52;;;;;;;8.30;3.85;;;;;;;;;;143732;608;46012;-89
2021/09/26 04:46:19;;;;;;;10.68;4.25;;;;;;;;;;143731;597;47018;-90
2021/09/26 04:48:48;;;;;;;10.77;4.40;;;;;;;;;;143736;660;46023;-89
2021/09/26 04:51:16;;;;;;;11.00;3.90;;;;;;;;;;143735;579;46016;-90
2021/09/26 04:53:43;;;;;;;8.35;4.07;;;;;;;;;;143734;566;46012;-92
2021/09/26 04:56:09;;;;;;;7.68;3.55;;;;;;;;;;143735;580;46035;-90
2021/09/26 04:58:36;;;;;;;11.57;4.47;;;;;;;;;;143735;587;47020;-89
2021/09/26 05:01:03;;;;;;;7.57;4.97;;;;;;;;;;143732;649;47018;-89
2021/09/26 05:03:30;;;;;;;8.23;4.35;;;;;;;;;;143731;597;46023;-90
2021/09/26 05:05:57;;;;;;;6.10;3.75;;;;;;;;;;143733;615;48018;-90
2021/09/26 05:08:24;;;;;;;7.25;3.62;;;;;;;;;;143737;575;46022;-90
2021/09/26 05:10:51;;;;;;;7.30;4.55;;;;;;;;;;143731;570;47015;-89
2021/09/26 05:13:17;;;;;;;4.65;3.62;;;;;;;;;;143733;614;46014;-89
2021/09/26 05:15:44;;;;;;;6.72;4.47;;;;;;;;;;143734;586;47018;-89
2021/09/26 05:18:10;;;;;;;12.95;4.22;;;;;;;;;;143735;611;46013;-89
2021/09/26 05:20:37;;;;;;;10.60;4.22;;;;;;;;;;143733;600;47021;-89
2021/09/26 05:23:04;;;;;;;7.35;4.32;;;;;;;;;;143735;609;46012;-90
2021/09/26 05:25:31;;;;;;;13.55;4.40;;;;;;;;;;143734;602;46019;-91
2021/09/26 05:27:57;;;;;;;11.27;4.15;;;;;;;;;;143736;612;46012;-91
2021/09/26 05:30:26;;;;;;;5.12;4.28;;;;;;;;;;143732;590;47020;-91
2021/09/26 05:32:52;;;;;;;6.00;3.62;;;;;;;;;;143732;620;46013;-90
2021/09/26 05:35:20;;;;;;;12.18;4.57;;;;;;;;;;143733;613;47016;-93
2021/09/26 05:37:47;;;;;;;7.85;3.90;;;;;;;;;;143736;636;46012;-90
2021/09/26 05:40:19;;;;;;;8.45;3.50;;;;;;;;;;143733;657;47018;-87
2021/09/26 05:42:46;;;;;;;11.68;4.10;;;;;;;;;;143732;644;46012;-86
2021/09/26 05:45:48;;;;;;;9.88;3.40;;;;;;;;;;143734;771;46018;-88
2021/09/26 05:48:14;;;;;;;7.57;4.35;;;;;;;;;;143736;575;46023;-88
2021/09/26 05:50:41;;;;;;;7.75;4.03;;;;;;;;;;143733;630;47020;-89
2021/09/26 05:53:07;;;;;;;9.98;4.40;;;;;;;;;;143736;662;46012;-87
2021/09/26 05:55:34;;;;;;;7.90;4.40;;;;;;;;;;143732;612;47018;-89
2021/09/26 05:58:03;;;;;;;9.40;3.95;;;;;;;;;;143738;620;46012;-89
2021/09/26 06:00:30;;;;;;;10.00;3.90;;;;;;;;;;143732;663;47020;-89
2021/09/26 06:02:57;;;;;;;17.12;4.10;;;;;;;;;;143734;570;46013;-87
2021/09/26 06:05:24;;;;;;;5.20;3.30;;;;;;;;;;143737;599;46018;-89
2021/09/26 06:07:51;;;;;;;8.40;3.60;;;;;;;;;;143736;573;46012;-88
2021/09/26 06:10:19;;;;;;;8.88;4.37;;;;;;;;;;143733;623;47019;-88
2021/09/26 06:12:46;;;;;;;7.22;4.10;;;;;;;;;;143733;595;46012;-88
2021/09/26 06:15:13;;;;;;;9.32;3.75;;;;;;;;;;143738;576;46018;-88
2021/09/26 06:17:41;;;;;;;10.68;4.25;;;;;;;;;;143735;679;47012;-85
2021/09/26 06:20:09;;;;;;;6.95;4.30;;;;;;;;;;143734;585;46045;-86
2021/09/26 06:22:36;;;;;;;9.35;4.50;;;;;;;;;;143734;576;46012;-86
2021/09/26 06:25:04;;;;;;;11.73;5.87;;;;;;;;;;143736;582;46019;-87
2021/09/26 06:27:31;;;;;;;14.43;6.07;;;;;;;;;;143736;589;46020;-88
2021/09/26 06:29:58;;;;;;;14.93;6.57;;;;;;;;;;143732;621;47020;-87
2021/09/26 06:32:25;;;;;;;11.75;6.55;;;;;;;;;;143734;647;46023;-86
2021/09/26 06:34:52;;;;;;;11.07;5.50;;;;;;;;;;143736;601;46032;-87
2021/09/26 06:37:19;;;;;;;11.43;6.28;;;;;;;;;;143737;645;46012;-88
2021/09/26 06:39:46;;;;;;;11.07;6.75;;;;;;;;;;143732;570;47020;-86
2021/09/26 06:42:13;;;;;;;14.05;6.50;;;;;;;;;;143733;656;46012;-87
2021/09/26 06:44:39;;;;;;;12.45;7.05;;;;;;;;;;143735;630;47018;-87
2021/09/26 06:47:08;;;;;;;20.83;8.05;;;;;;;;;;143737;564;46012;-89
2021/09/26 06:49:35;;;;;;;12.95;6.97;;;;;;;;;;143733;578;47021;-89
2021/09/26 06:52:02;;;;;;;14.70;7.80;;;;;;;;;;143736;580;46012;-87
2021/09/26 06:54:29;;;;;;;14.90;7.57;;;;;;;;;;143734;630;46019;-88
2021/09/26 06:56:55;;;;;;;22.15;7.40;;;;;;;;;;143737;586;46023;-87
2021/09/26 06:59:22;;;;;;;14.93;6.53;;;;;;;;;;143733;590;47018;-87
2021/09/26 07:01:49;;;;;;;11.40;6.50;;;;;;;;;;143734;593;46021;-87
2021/09/26 07:04:18;;;;;;;17.25;6.70;;;;;;;;;;143733;616;47019;-87
2021/09/26 07:06:45;;;;;;;12.37;6.18;;;;;;;;;;143734;585;47022;-86
2021/09/26 07:09:12;;;;;;;14.80;6.97;;;;;;;;;;143730;587;47019;-88
2021/09/26 07:11:38;;;;;;;13.20;5.50;;;;;;;;;;143734;565;46012;-87
2021/09/26 07:14:05;;;;;;;14.23;5.93;;;;;;;;;;143733;627;47018;-86
2021/09/26 07:16:32;;;;;;;10.80;5.97;;;;;;;;;;143738;613;46012;-88
2021/09/26 07:18:59;;;;;;;8.43;5.70;;;;;;;;;;143735;629;47021;-87
2021/09/26 07:21:26;;;;;;;15.27;5.78;;;;;;;;;;143735;607;46012;-86
2021/09/26 07:23:53;;;;;;;12.57;6.07;;;;;;;;;;143737;603;46018;-86
2021/09/26 07:26:21;;;;;;;8.20;5.03;;;;;;;;;;143735;580;47020;-88
2021/09/26 07:29:22;;;;;;;6.50;5.10;;;;;;;;;;143737;592;47020;-88
2021/09/26 07:31:51;;;;;;;6.22;4.65;;;;;;;;;;143734;569;45922;-87
2021/09/26 07:34:18;;;;;;;11.57;4.90;;;;;;;;;;143737;577;47018;-87
2021/09/26 07:36:45;;;;;;;7.62;4.53;;;;;;;;;;143736;585;46012;-87
2021/09/26 07:39:11;;;;;;;9.38;4.60;;;;;;;;;;143735;571;46019;-87
2021/09/26 07:41:38;;;;;;;11.32;4.70;;;;;;;;;;143735;620;46012;-87
2021/09/26 07:44:05;;;;;;;6.82;4.60;;;;;;;;;;143735;672;47018;-86
2021/09/26 07:46:32;;;;;;;6.62;4.00;;;;;;;;;;143736;629;46013;-88
2021/09/26 07:48:59;;;;;;;8.18;4.80;;;;;;;;;;143728;608;49018;-87
2021/09/26 07:51:25;;;;;;;7.15;4.57;;;;;;;;;;143736;604;46012;-86
2021/09/26 07:53:52;;;;;;;6.28;3.65;;;;;;;;;;143735;623;46019;-87
2021/09/26 07:56:20;;;;;;;6.60;3.95;;;;;;;;;;143737;622;46020;-86
2021/09/26 07:58:46;;;;;;;5.20;3.87;;;;;;;;;;143736;596;46018;-86
2021/09/26 08:01:15;;;;;;;6.80;3.62;;;;;;;;;;143735;564;46012;-87
2021/09/26 08:03:42;;;;;;;7.32;3.75;;;;;;;;;;143736;572;46019;-87
2021/09/26 08:06:08;;;;;;;6.65;3.72;;;;;;;;;;143738;576;46012;-88
2021/09/26 08:08:37;;;;;;;4.93;3.60;;;;;;;;;;143732;574;47020;-87
2021/09/26 08:11:04;;;;;;;4.43;3.47;;;;;;;;;;143733;569;47023;-87
2021/09/26 08:13:32;;;;;;;8.68;4.28;;;;;;;;;;143734;564;47018;-87
2021/09/26 08:15:59;;;;;;;9.23;4.72;;;;;;;;;;143736;610;46021;-87
2021/09/26 08:18:25;;;;;;;5.80;3.62;;;;;;;;;;143731;609;47021;-87
2021/09/26 08:20:52;;;;;;;5.65;3.80;;;;;;;;;;143736;611;47022;-87
2021/09/26 08:23:21;;;;;;;6.40;3.75;;;;;;;;;;143734;634;47019;-89
2021/09/26 08:25:48;;;;;;;6.97;4.25;;;;;;;;;;143736;613;46012;-85
2021/09/26 08:28:15;;;;;;;7.15;3.25;;;;;;;;;;143732;569;46020;-86
2021/09/26 08:30:43;;;;;;;6.70;4.18;;;;;;;;;;143734;572;46917;-86
2021/09/26 08:33:10;;;;;;;7.32;3.67;;;;;;;;;;143735;592;46019;-86
2021/09/26 08:35:37;;;;;;;5.18;3.78;;;;;;;;;;143736;565;46012;-86
2021/09/26 08:38:05;;;;;;;9.93;3.65;;;;;;;;;;143733;624;47020;-86
2021/09/26 08:40:32;;;;;;;11.38;4.45;;;;;;;;;;143737;570;45917;-86
2021/09/26 08:42:59;;;;;;;8.35;5.53;;;;;;;;;;143739;590;45018;-88
2021/09/26 08:45:28;;;;;;;5.82;3.75;;;;;;;;;;143737;569;46022;-85
2021/09/26 08:47:57;;;;;;;7.07;4.45;;;;;;;;;;143735;603;47018;-85
2021/09/26 08:50:25;;;;;;;3.90;3.42;;;;;;;;;;143734;614;47022;-87
2021/09/26 08:52:53;;;;;;;7.45;3.80;;;;;;;;;;143733;610;46018;-87
2021/09/26 08:55:21;;;;;;;8.98;4.28;;;;;;;;;;143739;587;46023;-86
2021/09/26 08:57:48;;;;;;;7.10;3.65;;;;;;;;;;143736;573;46018;-85
2021/09/26 09:00:17;;;;;;;5.32;3.75;;;;;;;;;;143731;607;46023;-86
2021/09/26 09:02:47;;;;;;;7.50;4.20;;;;;;;;;;143735;599;46019;-85
2021/09/26 09:05:52;;;;;;;5.55;3.72;;;;;;;;;;143736;589;46022;-85
2021/09/26 09:08:21;;;;;;;6.32;3.72;;;;;;;;;;143735;614;46014;-86
2021/09/26 09:10:57;;;;;;;5.05;3.55;;;;;;;;;;143734;610;46012;-88
2021/09/26 09:13:40;;;;;;;3.95;3.35;;;;;;;;;;143734;573;47018;-86
2021/09/26 09:16:15;;;;;;;4.65;3.05;;;;;;;;;;143735;579;46021;-85
2021/09/26 09:18:56;;;;;;;4.68;3.20;;;;;;;;;;143734;628;46018;-85
2021/09/26 09:21:37;;;;;;;6.10;3.22;;;;;;;;;;143733;565;46012;-88
2021/09/26 09:24:25;;;;;;;3.85;3.17;;;;;;;;;;143737;582;46019;-85
2021/09/26 09:26:53;;;;;;;6.85;3.40;;;;;;;;;;143738;575;46012;-86
2021/09/26 09:29:24;;;;;;;4.32;3.25;;;;;;;;;;143737;631;46020;-88
2021/09/26 09:31:58;;;;;;;6.50;3.45;;;;;;;;;;143735;594;46013;-86
2021/09/26 09:34:34;;;;;;;4.93;3.25;;;;;;;;;;143734;596;46014;-86
2021/09/26 09:37:15;;;;;;;4.82;3.05;;;;;;;;;;143738;585;46012;-87
2021/09/26 09:40:03;;;;;;;4.35;3.10;;;;;;;;;;143735;609;46019;-86
2021/09/26 09:42:40;;;;;;;6.03;2.92;;;;;;;;;;143732;621;47012;-85
2021/09/26 09:45:28;;;;;;;3.62;3.28;;;;;;;;;;143734;599;47018;-86
2021/09/26 09:48:14;;;;;;;6.78;3.35;;;;;;;;;;143736;600;46023;-86
2021/09/26 09:51:03;;;;;;;6.60;3.10;;;;;;;;;;143733;594;47018;-87
2021/09/26 09:53:45;;;;;;;3.80;2.83;;;;;;;;;;143734;613;46013;-87
2021/09/26 09:56:26;;;;;;;3.87;2.83;;;;;;;;;;143736;605;46018;-89
2021/09/26 09:58:57;;;;;;;5.10;2.87;;;;;;;;;;143736;571;46050;-87
2021/09/26 10:01:30;;;;;;;4.80;3.20;;;;;;;;;;143736;586;46020;-88
2021/09/26 10:04:01;;;;;;;10.38;3.80;;;;;;;;;;143736;601;46012;-87
2021/09/26 10:06:47;;;;;;;7.68;3.35;;;;;;;;;;143737;620;46014;-86
2021/09/26 10:09:31;;;;;;;32.08;8.35;;;;;;;;;;143737;570;46013;-85
2021/09/26 10:12:00;;;;;;;16.98;5.55;;;;;;;;;;143736;635;46016;-87
2021/09/26 10:14:30;;;;;;;9.57;3.83;;;;;;;;;;143735;605;46022;-87
2021/09/26 10:16:58;;;;;;;4.40;2.80;;;;;;;;;;143737;600;46018;-86
2021/09/26 10:19:26;;;;;;;7.75;3.83;;;;;;;;;;143737;585;46012;-85
2021/09/26 10:21:55;;;;;;;15.57;4.18;;;;;;;;;;143733;586;46047;-86
2021/09/26 10:24:24;;;;;;;11.40;3.67;;;;;;;;;;143733;607;46012;-85
2021/09/26 10:26:52;;;;;;;6.30;3.42;;;;;;;;;;143736;641;46016;-87
2021/09/26 10:29:21;;;;;;;3.90;2.87;;;;;;;;;;143734;614;46012;-86
2021/09/26 10:31:49;;;;;;;5.32;3.12;;;;;;;;;;143733;626;46021;-87
2021/09/26 10:34:23;;;;;;;4.82;3.05;;;;;;;;;;143733;618;46022;-87
2021/09/26 10:36:51;;;;;;;3.83;3.42;;;;;;;;;;143734;581;46014;-88
2021/09/26 10:39:18;;;;;;;6.72;3.03;;;;;;;;;;143734;620;46012;-86
2021/09/26 10:42:15;;;;;;;6.75;3.35;;;;;;;;;;143732;640;46020;-91
2021/09/26 10:45:09;;;;;;;3.50;2.90;;;;;;;;;;143732;608;46012;-89
2021/09/26 10:47:39;;;;;;;3.85;2.80;;;;;;;;;;143735;578;46018;-88
2021/09/26 10:50:15;;;;;;;3.42;2.95;;;;;;;;;;143735;563;46012;-90
2021/09/26 10:52:51;;;;;;;4.43;2.92;;;;;;;;;;143734;565;46018;-88
2021/09/26 10:55:44;;;;;;;4.22;2.67;;;;;;;;;;143733;618;46012;-89
2021/09/26 10:58:14;;;;;;;3.93;2.77;;;;;;;;;;143734;631;46018;-90
2021/09/26 11:00:55;;;;;;;6.85;3.53;;;;;;;;;;143735;644;46013;-91
2021/09/26 11:03:34;;;;;;;6.12;3.00;;;;;;;;;;143728;574;46020;-89
2021/09/26 11:06:20;;;;;;;4.47;3.15;;;;;;;;;;143731;571;46012;-90
2021/09/26 11:08:55;;;;;;;3.50;2.80;;;;;;;;;;143736;585;46019;-86
2021/09/26 11:11:54;;;;;;;6.78;3.67;;;;;;;;;;143734;666;47022;-87
2021/09/26 11:14:21;;;;;;;9.05;4.28;;;;;;;;;;143732;648;47018;-90
2021/09/26 11:16:57;;;;;;;3.90;3.42;;;;;;;;;;143732;651;46012;-91
2021/09/26 11:19:29;;;;;;;6.25;3.53;;;;;;;;;;143731;565;46018;-91
2021/09/26 11:22:03;;;;;;;3.40;3.10;;;;;;;;;;143735;589;46013;-89
2021/09/26 11:24:38;;;;;;;4.05;2.87;;;;;;;;;;143731;593;47021;-89
2021/09/26 11:27:18;;;;;;;3.67;2.70;;;;;;;;;;143731;631;46012;-89
2021/09/26 11:30:13;;;;;;;3.42;2.72;;;;;;;;;;143734;588;47018;-89
2021/09/26 11:32:40;;;;;;;4.15;2.60;;;;;;;;;;143733;674;46020;-88
2021/09/26 11:35:22;;;;;;;2.87;2.03;;;;;;;;;;143731;628;47020;-90
2021/09/26 11:37:51;;;;;;;4.50;2.30;;;;;;;;;;143733;602;46012;-91
2021/09/26 11:41:01;;;;;;;3.33;2.30;;;;;;;;;;143733;566;47018;-90
2021/09/26 11:43:38;;;;;;;4.72;2.78;;;;;;;;;;143735;569;47022;-83
2021/09/26 11:46:37;;;;;;;7.68;2.58;;;;;;;;;;143736;575;47018;-83
2021/09/26 11:49:17;;;;;;;8.23;2.80;;;;;;;;;;143736;590;45910;-90
2021/09/26 11:51:54;;;;;;;4.43;2.67;;;;;;;;;;143733;603;47018;-91
2021/09/26 11:54:31;;;;;;;7.90;3.00;;;;;;;;;;143739;586;45023;-89
2021/09/26 11:57:05;;;;;;;4.57;1.83;;;;;;;;;;143736;645;45912;-90
2021/09/26 11:59:44;;;;;;;4.28;2.25;;;;;;;;;;143736;591;45921;-90
2021/09/26 12:02:17;;;;;;;4.18;2.28;;;;;;;;;;143734;622;46018;-90
2021/09/26 12:04:46;;;;;;;3.20;2.60;;;;;;;;;;143737;571;45032;-89
2021/09/26 12:07:18;;;;;;;4.78;2.22;;;;;;;;;;143736;612;46019;-90
2021/09/26 12:09:50;;;;;;;2.80;2.40;;;;;;;;;;143734;603;45919;-88
2021/09/26 12:12:29;;;;;;;2.83;2.37;;;;;;;;;;143736;577;46018;-90
2021/09/26 12:15:09;;;;;;;5.72;2.45;;;;;;;;;;143737;571;45023;-90
2021/09/26 12:17:37;;;;;;;4.90;2.75;;;;;;;;;;143733;583;46020;-92
2021/09/26 12:20:11;;;;;;;5.25;2.55;;;;;;;;;;143732;586;46012;-89
2021/09/26 12:22:39;;;;;;;3.37;2.20;;;;;;;;;;143731;596;47019;-87
2021/09/26 12:25:31;;;;;;;5.50;2.85;;;;;;;;;;143736;578;46022;-89
2021/09/26 12:28:19;;;;;;;2.75;2.35;;;;;;;;;;143733;587;46022;-90
2021/09/26 12:30:57;;;;;;;4.57;2.62;;;;;;;;;;143731;587;46013;-88
2021/09/26 12:33:54;;;;;;;4.70;2.62;;;;;;;;;;143733;641;46018;-88
2021/09/26 12:36:36;;;;;;;4.90;2.62;;;;;;;;;;143736;594;46021;-89
2021/09/26 12:39:05;;;;;;;2.60;2.00;;;;;;;;;;143735;620;46018;-89
2021/09/26 12:41:46;;;;;;;;;;;;;;;;;;;;;
2021/09/26 12:44:45;;;;;;;2.58;2.30;;;;;;;;;;143737;570;46017;-90
2021/09/26 12:47:24;;;;;;;2.83;2.22;;;;;;;;;;143735;573;46022;-91
2021/09/26 12:49:56;;;;;;;4.00;2.08;;;;;;;;;;143735;590;46018;-92
2021/09/26 12:52:26;;;;;;;4.03;2.33;;;;;;;;;;143733;569;46013;-88
2021/09/26 12:55:00;;;;;;;4.35;2.53;;;;;;;;;;143733;582;46018;-90
2021/09/26 12:57:38;;;;;;;5.87;2.58;;;;;;;;;;143736;583;46012;-89
2021/09/26 13:00:43;;;;;;;2.72;2.42;;;;;;;;;;143733;598;46048;-91
2021/09/26 13:03:23;;;;;;;6.55;2.20;;;;;;;;;;143730;583;47012;-90
2021/09/26 13:06:01;;;;;;;3.78;2.60;;;;;;;;;;143734;576;46018;-90
2021/09/26 13:08:48;;;;;;;6.45;2.65;;;;;;;;;;143735;624;46053;-88
2021/09/26 13:11:34;;;;;;;4.47;2.37;;;;;;;;;;143733;589;46018;-87
2021/09/26 13:14:39;;;;;;;4.32;2.92;;;;;;;;;;143733;580;46023;-89
2021/09/26 13:17:14;;;;;;;3.10;2.78;;;;;;;;;;143732;646;46016;-88
2021/09/26 13:19:52;;;;;;;6.47;3.42;;;;;;;;;;143735;583;46012;-88
2021/09/26 13:22:31;;;;;;;4.60;3.00;;;;;;;;;;143733;588;46020;-88
2021/09/26 13:25:22;;;;;;;3.42;2.85;;;;;;;;;;143733;626;47022;-87
2021/09/26 13:28:05;;;;;;;3.80;3.12;;;;;;;;;;143734;589;47018;-90
2021/09/26 13:30:40;;;;;;;3.80;3.05;;;;;;;;;;143735;569;46020;-87
2021/09/26 13:33:31;;;;;;;5.22;3.08;;;;;;;;;;143733;573;46048;-90
2021/09/26 13:36:17;;;;;;;4.90;3.10;;;;;;;;;;143731;577;46023;-88
2021/09/26 13:38:55;;;;;;;4.25;2.83;;;;;;;;;;143733;630;46040;-90
2021/09/26 13:41:38;;;;;;;4.78;2.97;;;;;;;;;;143735;633;46022;-89
2021/09/26 13:44:09;;;;;;;5.75;3.37;;;;;;;;;;143730;606;47018;-89
2021/09/26 13:46:36;;;;;;;4.45;3.33;;;;;;;;;;143732;626;46022;-88
2021/09/26 13:49:03;;;;;;;13.73;4.05;;;;;;;;;;143733;593;46018;-87
2021/09/26 13:51:31;;;;;;;4.20;2.95;;;;;;;;;;143735;570;46020;-89
2021/09/26 13:53:58;;;;;;;3.75;3.10;;;;;;;;;;143730;634;47021;-90
2021/09/26 13:56:25;;;;;;;6.95;3.95;;;;;;;;;;143731;614;46012;-88
2021/09/26 13:58:55;;;;;;;7.00;3.12;;;;;;;;;;143734;573;46019;-88
2021/09/26 14:01:26;;;;;;;5.37;3.40;;;;;;;;;;143734;580;46012;-88
2021/09/26 14:04:02;;;;;;;3.70;3.25;;;;;;;;;;143733;576;46018;-90
2021/09/26 14:06:34;;;;;;;5.37;3.30;;;;;;;;;;143732;646;46013;-89
2021/09/26 14:09:01;;;;;;;6.03;3.70;;;;;;;;;;143732;579;46018;-89
2021/09/26 14:11:31;;;;;;;4.05;3.33;;;;;;;;;;143735;587;46020;-89
2021/09/26 14:13:59;;;;;;;6.62;3.70;;;;;;;;;;143731;569;47020;-88
2021/09/26 14:16:29;;;;;;;4.25;3.55;;;;;;;;;;143732;577;46012;-87
2021/09/26 14:18:55;;;;;;;4.35;3.40;;;;;;;;;;143733;569;46018;-87
2021/09/26 14:21:24;;;;;;;3.25;2.95;;;;;;;;;;143734;596;46013;-88
2021/09/26 14:23:54;;;;;;;3.90;3.47;;;;;;;;;;143732;583;46020;-86
2021/09/26 14:26:23;;;;;;;4.10;3.58;;;;;;;;;;143733;579;46012;-89
2021/09/26 14:28:49;;;;;;;4.35;3.33;;;;;;;;;;143734;601;46019;-87
2021/09/26 14:31:17;;;;;;;6.87;3.40;;;;;;;;;;143733;587;46022;-87
2021/09/26 14:33:47;;;;;;;7.60;3.42;;;;;;;;;;143730;564;47020;-88
2021/09/26 14:36:20;;;;;;;4.85;3.10;;;;;;;;;;143729;564;47919;-88
2021/09/26 14:38:46;;;;;;;3.25;3.03;;;;;;;;;;143732;564;47018;-88
2021/09/26 14:41:16;;;;;;;3.45;3.00;;;;;;;;;;143734;588;46012;-87
2021/09/26 14:43:45;;;;;;;4.62;3.40;;;;;;;;;;143734;565;46016;-88
2021/09/26 14:46:15;;;;;;;4.32;3.05;;;;;;;;;;143732;633;46012;-87
2021/09/26 14:48:43;;;;;;;4.40;3.17;;;;;;;;;;143734;604;46018;-87
2021/09/26 14:51:11;;;;;;;5.97;3.28;;;;;;;;;;143737;564;46022;-87
2021/09/26 14:53:38;;;;;;;4.10;3.17;;;;;;;;;;143732;566;47021;-86
2021/09/26 14:56:06;;;;;;;4.65;3.30;;;;;;;;;;143734;596;45923;-88
2021/09/26 14:58:33;;;;;;;3.58;3.25;;;;;;;;;;143730;593;47019;-86
2021/09/26 15:00:59;;;;;;;10.45;3.20;;;;;;;;;;143734;612;46012;-86
2021/09/26 15:03:27;;;;;;;4.18;3.35;;;;;;;;;;143734;579;46020;-86
2021/09/26 15:05:56;;;;;;;4.40;3.55;;;;;;;;;;143731;573;46012;-87
2021/09/26 15:08:22;;;;;;;7.20;4.40;;;;;;;;;;143730;611;47018;-86
2021/09/26 15:10:49;;;;;;;5.70;3.05;;;;;;;;;;143734;634;46012;-87
2021/09/26 15:13:15;;;;;;;3.65;2.92;;;;;;;;;;143731;645;47020;-86
2021/09/26 15:15:43;;;;;;;4.53;3.12;;;;;;;;;;143732;621;46022;-86
2021/09/26 15:18:10;;;;;;;5.03;3.35;;;;;;;;;;143735;570;46018;-85